createdAt,value
2019-02-20T00:01:11.400Z,9.23
2019-02-20T00:03:16.130Z,9.30
2019-02-20T00:05:19.960Z,10.15
2019-02-20T00:07:23.789Z,9.83
2019-02-20T00:09:27.954Z,11.22
2019-02-20T00:11:31.772Z,11.40
2019-02-20T00:13:35.946Z,11.53
2019-02-20T00:15:40.160Z,13.28
2019-02-20T00:17:49.194Z,13.68
2019-02-20T00:19:55.260Z,12.58
2019-02-20T00:21:59.483Z,12.43
2019-02-20T00:24:03.667Z,12.47
2019-02-20T00:26:07.780Z,12.88
2019-02-20T00:28:11.892Z,10.98
2019-02-20T00:30:16.000Z,11.73
2019-02-20T00:32:19.824Z,11.20
2019-02-20T00:34:25.964Z,10.90
2019-02-20T00:36:33.149Z,11.95
2019-02-20T00:38:37.250Z,11.30
2019-02-20T00:40:41.090Z,13.32
2019-02-20T00:42:44.925Z,10.08
2019-02-20T00:44:50.440Z,12.20
2019-02-20T00:47:08.124Z,11.55
2019-02-20T00:49:13.873Z,12.13
2019-02-20T00:51:19.650Z,11.70
2019-02-20T00:53:25.494Z,12.03
2019-02-20T00:55:29.696Z,11.45
2019-02-20T00:57:33.810Z,10.72
2019-02-20T00:59:38.024Z,11.78
2019-02-20T01:01:42.137Z,11.65
2019-02-20T01:03:46.255Z,11.18
2019-02-20T01:05:50.638Z,10.18
2019-02-20T01:07:54.763Z,11.48
2019-02-20T01:09:58.878Z,9.78
2019-02-20T01:12:03.092Z,12.35
2019-02-20T01:14:06.924Z,11.95
2019-02-20T01:16:10.742Z,11.22
2019-02-20T01:18:14.910Z,12.60
2019-02-20T01:20:18.722Z,12.80
2019-02-20T01:22:22.930Z,13.72
2019-02-20T01:24:27.151Z,11.22
2019-02-20T01:26:31.245Z,12.18
2019-02-20T01:28:35.363Z,12.37
2019-02-20T01:30:39.574Z,12.95
2019-02-20T01:32:43.669Z,12.75
2019-02-20T01:34:47.501Z,11.40
2019-02-20T01:36:51.695Z,12.68
2019-02-20T01:38:55.808Z,14.18
2019-02-20T01:40:59.911Z,13.08
2019-02-20T01:43:05.626Z,13.85
2019-02-20T01:45:13.262Z,14.38
2019-02-20T01:47:17.385Z,12.95
2019-02-20T01:49:21.582Z,13.13
2019-02-20T01:51:25.779Z,12.53
2019-02-20T01:53:29.994Z,12.30
2019-02-20T01:55:34.133Z,11.93
2019-02-20T01:57:37.960Z,10.63
2019-02-20T01:59:42.139Z,10.05
2019-02-20T02:01:45.959Z,13.75
2019-02-20T02:03:50.152Z,11.73
2019-02-20T02:05:54.360Z,11.53
2019-02-20T02:07:58.461Z,12.43
2019-02-20T02:10:02.725Z,12.33
2019-02-20T02:12:06.891Z,15.40
2019-02-20T02:14:10.725Z,12.25
2019-02-20T02:16:14.918Z,12.82
2019-02-20T02:18:20.713Z,11.97
2019-02-20T02:20:24.545Z,12.78
2019-02-20T02:22:28.683Z,12.37
2019-02-20T02:24:32.878Z,14.30
2019-02-20T02:26:36.988Z,13.10
2019-02-20T02:28:40.807Z,14.13
2019-02-20T02:30:45.029Z,14.15
2019-02-20T02:32:49.228Z,12.98
2019-02-20T02:34:53.359Z,14.90
2019-02-20T02:36:57.539Z,12.30
2019-02-20T02:39:01.663Z,12.88
2019-02-20T02:41:05.798Z,12.88
2019-02-20T02:43:09.976Z,12.30
2019-02-20T02:45:16.807Z,13.70
2019-02-20T02:47:20.646Z,12.88
2019-02-20T02:49:24.871Z,12.55
2019-02-20T02:51:29.091Z,12.43
2019-02-20T02:53:33.300Z,12.35
2019-02-20T02:55:37.149Z,14.35
2019-02-20T02:57:43.157Z,13.78
2019-02-20T02:59:47.267Z,13.93
2019-02-20T03:01:51.890Z,13.25
2019-02-20T03:03:56.012Z,13.78
2019-02-20T03:06:00.131Z,13.83
2019-02-20T03:08:04.342Z,15.28
2019-02-20T03:10:09.044Z,16.62
2019-02-20T03:12:13.266Z,16.42
2019-02-20T03:14:17.384Z,18.65
2019-02-20T03:16:21.207Z,15.23
2019-02-20T03:18:25.385Z,20.52
2019-02-20T03:20:29.607Z,18.23
2019-02-20T03:22:33.824Z,19.20
2019-02-20T03:24:38.031Z,16.55
2019-02-20T03:26:42.707Z,15.90
2019-02-20T03:28:46.848Z,19.15
2019-02-20T03:30:51.068Z,18.77
2019-02-20T03:32:55.188Z,18.90
2019-02-20T03:34:59.282Z,22.32
2019-02-20T03:37:06.710Z,21.10
2019-02-20T03:39:10.525Z,19.90
2019-02-20T03:41:14.695Z,23.18
2019-02-20T03:43:19.128Z,19.62
2019-02-20T03:45:22.951Z,20.48
2019-02-20T03:47:27.145Z,20.90
2019-02-20T03:49:30.946Z,22.35
2019-02-20T03:51:34.775Z,21.80
2019-02-20T03:53:38.941Z,21.85
2019-02-20T03:55:44.551Z,20.97
2019-02-20T03:57:48.797Z,20.15
2019-02-20T03:59:54.112Z,21.90
2019-02-20T04:01:58.130Z,27.17
2019-02-20T04:04:02.203Z,20.62
2019-02-20T04:06:06.364Z,22.85
2019-02-20T04:08:10.477Z,20.37
2019-02-20T04:10:14.703Z,20.65
2019-02-20T04:12:18.905Z,17.77
2019-02-20T04:14:22.814Z,22.02
2019-02-20T04:16:27.178Z,29.03
2019-02-20T04:18:31.345Z,24.85
2019-02-20T04:20:36.597Z,23.07
2019-02-20T04:22:41.401Z,20.50
2019-02-20T04:24:45.608Z,20.17
2019-02-20T04:26:49.833Z,20.05
2019-02-20T04:28:53.950Z,20.02
2019-02-20T04:30:58.138Z,24.52
2019-02-20T04:33:02.248Z,23.90
2019-02-20T04:35:07.305Z,30.00
2019-02-20T04:37:11.512Z,23.67
2019-02-20T04:39:15.351Z,23.42
2019-02-20T04:41:19.516Z,22.20
2019-02-20T04:43:23.630Z,26.25
2019-02-20T04:45:27.788Z,23.10
2019-02-20T04:47:31.944Z,25.72
2019-02-20T04:49:36.157Z,24.52
2019-02-20T04:51:40.270Z,26.07
2019-02-20T04:53:44.384Z,26.12
2019-02-20T04:55:48.604Z,29.02
2019-02-20T04:58:18.990Z,28.95
2019-02-20T05:00:23.638Z,24.25
2019-02-20T05:02:27.653Z,32.00
2019-02-20T05:04:32.278Z,34.73
2019-02-20T05:06:36.501Z,26.93
2019-02-20T05:08:40.587Z,37.60
2019-02-20T05:10:44.480Z,31.80
2019-02-20T05:12:48.626Z,36.93
2019-02-20T05:14:54.556Z,38.92
2019-02-20T05:16:58.521Z,40.45
2019-02-20T05:19:02.373Z,40.08
2019-02-20T05:21:06.508Z,37.95
2019-02-20T05:23:10.709Z,37.93
2019-02-20T05:25:14.526Z,39.95
2019-02-20T05:27:18.614Z,39.40
2019-02-20T05:29:22.832Z,39.35
2019-02-20T05:31:29.717Z,42.60
2019-02-20T05:33:33.908Z,37.05
2019-02-20T05:35:38.130Z,34.78
2019-02-20T05:37:42.227Z,39.15
2019-02-20T05:39:46.377Z,34.35
2019-02-20T05:41:50.550Z,36.10
2019-02-20T05:43:54.447Z,39.95
2019-02-20T05:45:58.791Z,60.73
2019-02-20T05:48:02.652Z,45.23
2019-02-20T05:50:07.991Z,43.52
2019-02-20T05:52:12.142Z,34.85
2019-02-20T05:54:16.048Z,29.85
2019-02-20T05:56:19.925Z,32.67
2019-02-20T05:58:24.074Z,30.70
2019-02-20T06:00:28.272Z,36.13
2019-02-20T06:02:32.078Z,29.82
2019-02-20T06:04:36.280Z,30.62
2019-02-20T06:06:41.302Z,33.53
2019-02-20T06:08:47.536Z,36.30
2019-02-20T06:10:51.364Z,35.03
2019-02-20T06:12:55.304Z,37.73
2019-02-20T06:14:59.120Z,37.40
2019-02-20T06:17:02.968Z,38.63
2019-02-20T06:19:07.090Z,37.10
2019-02-20T06:21:10.921Z,39.15
2019-02-20T06:23:15.137Z,38.50
2019-02-20T06:25:19.329Z,33.40
2019-02-20T06:27:23.160Z,35.85
2019-02-20T06:29:27.346Z,34.92
2019-02-20T06:31:31.439Z,32.20
2019-02-20T06:33:35.566Z,35.52
2019-02-20T06:35:39.778Z,29.12
2019-02-20T06:37:43.887Z,31.50
2019-02-20T06:39:47.721Z,34.98
2019-02-20T06:41:51.911Z,31.90
2019-02-20T06:43:56.120Z,33.63
2019-02-20T06:46:00.232Z,31.27
2019-02-20T06:48:04.344Z,36.53
2019-02-20T06:50:09.067Z,36.45
2019-02-20T06:52:13.276Z,35.55
2019-02-20T06:54:17.506Z,32.90
2019-02-20T06:56:21.684Z,30.95
2019-02-20T06:58:25.512Z,31.73
2019-02-20T07:00:29.364Z,30.85
2019-02-20T07:02:33.508Z,32.85
2019-02-20T07:04:37.626Z,35.08
2019-02-20T07:06:48.270Z,34.65
2019-02-20T07:09:17.892Z,31.07
2019-02-20T07:11:37.349Z,34.18
2019-02-20T07:13:56.596Z,27.95
2019-02-20T07:16:15.902Z,35.13
2019-02-20T07:18:31.391Z,35.68
2019-02-20T07:20:53.827Z,34.67
2019-02-20T07:23:20.828Z,39.08
2019-02-20T07:25:39.070Z,35.68
2019-02-20T07:28:02.368Z,34.08
2019-02-20T07:30:08.487Z,28.95
2019-02-20T07:32:17.253Z,40.38
2019-02-20T07:34:21.459Z,36.55
2019-02-20T07:36:25.359Z,59.70
2019-02-20T07:38:29.208Z,47.08
2019-02-20T07:40:33.386Z,44.55
2019-02-20T07:42:37.591Z,36.70
2019-02-20T07:44:41.446Z,38.88
2019-02-20T07:46:45.601Z,36.30
2019-02-20T07:48:49.724Z,29.98
2019-02-20T07:50:53.916Z,31.97
2019-02-20T07:52:58.531Z,30.85
2019-02-20T07:55:12.557Z,33.08
2019-02-20T07:57:08.509Z,31.90
2019-02-20T07:59:12.329Z,29.65
2019-02-20T08:01:17.323Z,28.75
2019-02-20T08:03:21.554Z,28.65
2019-02-20T08:05:25.590Z,28.60
2019-02-20T08:07:29.668Z,30.10
2019-02-20T08:09:33.512Z,28.57
2019-02-20T08:11:37.692Z,27.50
2019-02-20T08:13:41.795Z,25.48
2019-02-20T08:15:46.022Z,27.75
2019-02-20T08:17:52.163Z,24.05
2019-02-20T08:19:56.275Z,27.10
2019-02-20T08:22:00.228Z,24.55
2019-02-20T08:24:04.404Z,23.02
2019-02-20T08:26:08.226Z,21.17
2019-02-20T08:28:12.076Z,24.40
2019-02-20T08:30:16.226Z,23.07
2019-02-20T08:32:20.153Z,19.37
2019-02-20T08:34:24.337Z,22.00
2019-02-20T08:36:28.444Z,20.95
2019-02-20T08:38:32.264Z,20.68
2019-02-20T08:40:36.453Z,26.10
2019-02-20T08:42:42.719Z,25.92
2019-02-20T08:44:46.838Z,27.70
2019-02-20T08:46:53.509Z,21.60
2019-02-20T08:48:57.355Z,23.12
2019-02-20T08:51:01.527Z,21.45
2019-02-20T08:53:05.719Z,20.68
2019-02-20T08:55:10.946Z,20.35
2019-02-20T08:57:15.081Z,24.05
2019-02-20T08:59:19.295Z,23.47
2019-02-20T09:01:23.509Z,21.95
2019-02-20T09:03:27.719Z,22.95
2019-02-20T09:05:34.123Z,21.68
2019-02-20T09:07:39.838Z,21.10
2019-02-20T09:09:44.033Z,21.82
2019-02-20T09:11:47.861Z,21.57
2019-02-20T09:13:53.893Z,20.77
2019-02-20T09:15:58.111Z,20.48
2019-02-20T09:18:05.289Z,18.75
2019-02-20T09:20:11.238Z,21.77
2019-02-20T09:22:15.458Z,18.23
2019-02-20T09:24:19.568Z,20.08
2019-02-20T09:26:23.783Z,20.23
2019-02-20T09:28:27.997Z,20.15
2019-02-20T09:30:34.886Z,20.92
2019-02-20T09:32:39.088Z,21.02
2019-02-20T09:34:45.585Z,20.35
2019-02-20T09:36:51.707Z,19.65
2019-02-20T09:38:55.813Z,20.88
2019-02-20T09:41:00.024Z,19.73
2019-02-20T09:43:04.148Z,19.40
2019-02-20T09:45:09.466Z,19.45
2019-02-20T09:47:13.579Z,20.02
2019-02-20T09:49:17.797Z,19.57
2019-02-20T09:51:22.013Z,19.50
2019-02-20T09:53:26.129Z,18.67
2019-02-20T09:55:33.612Z,19.75
2019-02-20T09:57:39.879Z,21.23
2019-02-20T09:59:45.831Z,19.42
2019-02-20T10:01:50.036Z,20.62
2019-02-20T10:03:54.257Z,19.52
2019-02-20T10:05:58.080Z,19.73
2019-02-20T10:08:02.275Z,20.23
2019-02-20T10:10:09.065Z,20.20
2019-02-20T10:12:12.891Z,20.08
2019-02-20T10:14:17.048Z,19.75
2019-02-20T10:16:20.927Z,20.17
2019-02-20T10:18:24.756Z,22.10
2019-02-20T10:20:28.976Z,18.62
2019-02-20T10:22:33.197Z,19.00
2019-02-20T10:24:37.013Z,18.25
2019-02-20T10:26:41.201Z,16.32
2019-02-20T10:28:45.035Z,16.73
2019-02-20T10:30:48.851Z,15.35
2019-02-20T10:32:52.708Z,15.70
2019-02-20T10:34:56.637Z,15.27
2019-02-20T10:37:00.177Z,16.00
2019-02-20T10:39:05.556Z,16.03
2019-02-20T10:41:09.110Z,14.97
2019-02-20T10:43:12.642Z,15.93
2019-02-20T10:45:16.559Z,15.43
2019-02-20T10:47:22.218Z,14.43
2019-02-20T10:49:26.113Z,13.50
2019-02-20T10:51:30.001Z,14.07
2019-02-20T10:53:33.545Z,15.03
2019-02-20T10:55:37.416Z,15.17
2019-02-20T10:57:41.310Z,13.30
2019-02-20T10:59:45.229Z,13.60
2019-02-20T11:01:49.123Z,14.20
2019-02-20T11:03:53.020Z,13.20
2019-02-20T11:05:56.566Z,13.80
2019-02-20T11:08:00.428Z,13.57
2019-02-20T11:10:05.283Z,16.97
2019-02-20T11:12:11.025Z,11.73
2019-02-20T11:14:14.917Z,11.23
2019-02-20T11:16:18.471Z,13.77
2019-02-20T11:18:22.325Z,12.37
2019-02-20T11:20:26.219Z,9.00
2019-02-20T11:22:32.152Z,8.47
2019-02-20T11:24:35.656Z,8.77
2019-02-20T11:26:50.234Z,7.97
2019-02-20T11:28:45.113Z,7.53
2019-02-20T11:30:51.325Z,6.77
2019-02-20T11:32:55.178Z,7.43
2019-02-20T11:35:00.494Z,8.00
2019-02-20T11:37:04.224Z,8.10
2019-02-20T11:39:07.829Z,7.07
2019-02-20T11:41:11.375Z,5.37
2019-02-20T11:43:16.320Z,5.17
2019-02-20T11:45:22.720Z,5.70
2019-02-20T11:47:26.520Z,8.07
2019-02-20T11:49:30.412Z,10.00
2019-02-20T11:51:33.946Z,15.77
2019-02-20T11:53:37.812Z,5.77
2019-02-20T11:55:41.330Z,3.90
2019-02-20T11:57:45.222Z,3.97
2019-02-20T11:59:48.764Z,3.43
2019-02-20T12:01:52.724Z,4.43
2019-02-20T12:03:56.525Z,8.63
2019-02-20T12:06:00.442Z,11.50
2019-02-20T12:08:04.346Z,3.23
2019-02-20T12:10:12.666Z,11.40
2019-02-20T12:12:16.546Z,4.73
2019-02-20T12:14:23.999Z,7.37
2019-02-20T12:16:27.287Z,3.97
2019-02-20T12:18:31.011Z,3.23
2019-02-20T12:20:34.824Z,6.53
2019-02-20T12:22:38.740Z,3.53
2019-02-20T12:24:42.550Z,2.83
2019-02-20T12:26:46.439Z,3.60
2019-02-20T12:28:49.993Z,8.00
2019-02-20T12:30:54.355Z,4.30
2019-02-20T12:32:58.897Z,3.23
2019-02-20T12:35:02.428Z,4.13
2019-02-20T12:37:06.397Z,6.50
2019-02-20T12:39:10.710Z,7.10
2019-02-20T12:41:14.243Z,3.90
2019-02-20T12:43:18.108Z,9.40
2019-02-20T12:45:21.727Z,4.17
2019-02-20T12:47:25.620Z,4.03
2019-02-20T12:49:31.068Z,4.40
2019-02-20T12:51:34.956Z,5.47
2019-02-20T12:53:38.850Z,5.17
2019-02-20T12:55:42.386Z,5.30
2019-02-20T12:57:46.252Z,5.40
2019-02-20T12:59:50.176Z,5.13
2019-02-20T13:01:53.698Z,6.60
2019-02-20T13:03:57.232Z,6.37
2019-02-20T13:06:01.165Z,5.80
2019-02-20T13:08:05.792Z,5.10
2019-02-20T13:10:10.309Z,5.93
2019-02-20T13:12:14.334Z,6.00
2019-02-20T13:14:18.213Z,5.90
2019-02-20T13:16:22.074Z,6.13
2019-02-20T13:18:25.920Z,5.80
2019-02-20T13:20:29.733Z,6.23
2019-02-20T13:22:33.527Z,8.10
2019-02-20T13:24:37.429Z,6.60
2019-02-20T13:26:41.338Z,7.40
2019-02-20T13:28:45.275Z,6.50
2019-02-20T13:30:48.804Z,5.67
2019-02-20T13:32:52.643Z,5.73
2019-02-20T13:34:56.659Z,5.83
2019-02-20T13:37:00.675Z,5.37
2019-02-20T13:39:05.850Z,5.40
2019-02-20T13:41:09.525Z,5.20
2019-02-20T13:43:13.416Z,5.60
2019-02-20T13:45:16.946Z,5.27
2019-02-20T13:47:20.561Z,5.47
2019-02-20T13:49:25.789Z,5.10
2019-02-20T13:51:29.746Z,4.47
2019-02-20T13:53:33.759Z,5.00
2019-02-20T13:55:37.563Z,5.73
2019-02-20T13:57:41.088Z,4.60
2019-02-20T13:59:44.627Z,5.17
2019-02-20T14:01:48.560Z,6.10
2019-02-20T14:03:53.342Z,4.67
2019-02-20T14:05:57.230Z,6.17
2019-02-20T14:08:01.222Z,5.37
2019-02-20T14:10:10.829Z,4.90
2019-02-20T14:12:14.736Z,4.03
2019-02-20T14:14:18.566Z,4.00
2019-02-20T14:16:22.450Z,4.40
2019-02-20T14:18:27.894Z,4.40
2019-02-20T14:20:31.482Z,4.60
2019-02-20T14:22:35.010Z,4.67
2019-02-20T14:24:38.890Z,4.63
2019-02-20T14:26:42.685Z,5.57
2019-02-20T14:28:46.500Z,5.53
2019-02-20T14:30:50.042Z,5.77
2019-02-20T14:32:53.574Z,5.57
2019-02-20T14:34:57.802Z,6.10
2019-02-20T14:37:02.909Z,6.50
2019-02-20T14:39:06.841Z,6.17
2019-02-20T14:41:10.848Z,5.97
2019-02-20T14:43:14.764Z,6.77
2019-02-20T14:45:18.872Z,6.30
2019-02-20T14:47:22.772Z,6.03
2019-02-20T14:49:26.301Z,6.20
2019-02-20T14:51:30.227Z,18.73
2019-02-20T14:53:34.081Z,7.63
2019-02-20T14:55:37.894Z,13.87
2019-02-20T14:57:41.778Z,7.13
2019-02-20T14:59:45.699Z,8.07
2019-02-20T15:01:49.224Z,6.40
2019-02-20T15:03:53.122Z,5.83
2019-02-20T15:05:56.990Z,6.67
2019-02-20T15:08:02.134Z,12.30
2019-02-20T15:10:08.430Z,6.10
2019-02-20T15:12:11.983Z,11.17
2019-02-20T15:14:16.249Z,10.67
2019-02-20T15:16:19.840Z,6.40
2019-02-20T15:18:23.822Z,11.57
2019-02-20T15:20:27.727Z,8.23
2019-02-20T15:22:31.248Z,6.33
2019-02-20T15:24:36.762Z,5.77
2019-02-20T15:26:40.290Z,12.00
2019-02-20T15:28:44.170Z,19.77
2019-02-20T15:30:48.060Z,8.23
2019-02-20T15:32:54.244Z,6.40
2019-02-20T15:34:57.762Z,6.57
2019-02-20T15:37:01.729Z,7.40
2019-02-20T15:39:05.694Z,5.90
2019-02-20T15:41:11.178Z,6.47
2019-02-20T15:43:14.735Z,6.80
2019-02-20T15:45:18.284Z,7.47
2019-02-20T15:47:22.162Z,6.80
2019-02-20T15:49:26.098Z,12.43
2019-02-20T15:51:29.673Z,8.73
2019-02-20T15:53:33.242Z,7.03
2019-02-20T15:55:37.591Z,7.47
2019-02-20T15:57:41.498Z,6.87
2019-02-20T15:59:45.240Z,9.63
2019-02-20T16:01:49.200Z,8.53
2019-02-20T16:03:53.114Z,7.33
2019-02-20T16:05:57.305Z,7.53
2019-02-20T16:08:00.830Z,6.77
2019-02-20T16:10:07.276Z,9.07
2019-02-20T16:12:11.192Z,7.97
2019-02-20T16:14:14.726Z,7.83
2019-02-20T16:16:18.912Z,8.60
2019-02-20T16:18:22.912Z,11.67
2019-02-20T16:20:26.822Z,9.33
2019-02-20T16:22:30.343Z,10.73
2019-02-20T16:24:34.237Z,7.63
2019-02-20T16:26:38.429Z,6.97
2019-02-20T16:28:41.955Z,6.93
2019-02-20T16:30:45.505Z,6.70
2019-02-20T16:32:51.182Z,7.77
2019-02-20T16:34:54.960Z,7.13
2019-02-20T16:36:58.504Z,7.17
2019-02-20T16:39:02.060Z,6.33
2019-02-20T16:41:05.849Z,6.67
2019-02-20T16:43:09.674Z,7.00
2019-02-20T16:45:21.443Z,6.73
2019-02-20T16:47:25.354Z,7.30
2019-02-20T16:49:29.295Z,7.07
2019-02-20T16:51:33.479Z,6.83
2019-02-20T16:53:37.369Z,7.10
2019-02-20T16:55:41.251Z,6.55
2019-02-20T16:57:45.401Z,6.08
2019-02-20T16:59:49.621Z,6.20
2019-02-20T17:01:53.441Z,6.28
2019-02-20T17:03:57.525Z,6.87
2019-02-20T17:06:01.840Z,6.60
2019-02-20T17:08:06.050Z,6.35
2019-02-20T17:10:12.054Z,5.72
2019-02-20T17:12:16.221Z,6.58
2019-02-20T17:14:20.465Z,5.60
2019-02-20T17:16:24.283Z,6.33
2019-02-20T17:18:28.457Z,6.37
2019-02-20T17:20:34.011Z,6.30
2019-02-20T17:22:38.189Z,6.53
2019-02-20T17:24:42.113Z,6.10
2019-02-20T17:26:45.965Z,7.17
2019-02-20T17:28:50.123Z,7.47
2019-02-20T17:30:54.341Z,6.40
2019-02-20T17:32:58.557Z,5.75
2019-02-20T17:35:02.515Z,6.87
2019-02-20T17:37:06.679Z,6.33
2019-02-20T17:39:10.897Z,6.78
2019-02-20T17:41:14.965Z,7.58
2019-02-20T17:43:19.109Z,6.60
2019-02-20T17:45:23.314Z,6.92
2019-02-20T17:47:27.338Z,7.13
2019-02-20T17:49:31.529Z,6.58
2019-02-20T17:51:35.652Z,7.08
2019-02-20T17:53:39.884Z,6.90
2019-02-20T17:55:43.727Z,6.97
2019-02-20T17:57:47.861Z,6.92
2019-02-20T17:59:51.987Z,7.90
2019-02-20T18:01:55.872Z,7.85
2019-02-20T18:03:59.696Z,7.58
2019-02-20T18:06:05.640Z,8.80
2019-02-20T18:08:09.857Z,8.10
2019-02-20T18:10:14.699Z,9.40
2019-02-20T18:12:18.908Z,9.33
2019-02-20T18:14:22.782Z,9.00
2019-02-20T18:16:26.927Z,9.28
2019-02-20T18:18:31.042Z,10.75
2019-02-20T18:20:34.889Z,8.70
2019-02-20T18:22:39.067Z,11.48
2019-02-20T18:24:43.242Z,10.60
2019-02-20T18:26:47.475Z,11.53
2019-02-20T18:28:53.346Z,11.28
2019-02-20T18:30:57.183Z,10.58
2019-02-20T18:33:01.378Z,12.93
2019-02-20T18:35:08.376Z,12.60
2019-02-20T18:37:12.520Z,13.88
2019-02-20T18:39:16.746Z,13.05
2019-02-20T18:41:20.592Z,14.23
2019-02-20T18:43:24.407Z,15.38
2019-02-20T18:45:28.330Z,14.18
2019-02-20T18:47:32.236Z,14.30
2019-02-20T18:49:36.117Z,15.58
2019-02-20T18:51:40.060Z,16.40
2019-02-20T18:53:45.018Z,14.73
2019-02-20T18:55:49.316Z,17.07
2019-02-20T18:57:53.202Z,19.45
2019-02-20T18:59:57.042Z,19.25
2019-02-20T19:02:00.873Z,19.32
2019-02-20T19:04:07.767Z,19.60
2019-02-20T19:06:10.986Z,19.82
2019-02-20T19:08:34.315Z,19.12
2019-02-20T19:10:40.716Z,17.85
2019-02-20T19:12:59.470Z,16.65
2019-02-20T19:15:15.353Z,18.05
2019-02-20T19:17:47.828Z,16.77
2019-02-20T19:20:06.293Z,20.68
2019-02-20T19:22:22.355Z,19.70
2019-02-20T19:24:40.788Z,19.35
2019-02-20T19:26:56.580Z,17.80
2019-02-20T19:29:22.079Z,19.25
2019-02-20T19:31:54.710Z,21.82
2019-02-20T19:34:26.021Z,19.82
2019-02-20T19:36:35.667Z,20.95
2019-02-20T19:39:05.188Z,19.60
2019-02-20T19:41:42.482Z,19.85
2019-02-20T19:43:54.006Z,20.32
2019-02-20T19:46:22.140Z,20.23
2019-02-20T19:48:50.878Z,23.20
2019-02-20T19:51:07.122Z,22.40
2019-02-20T19:53:14.010Z,21.73
2019-02-20T19:55:36.558Z,22.35
2019-02-20T19:58:02.584Z,24.80
2019-02-20T20:00:24.997Z,22.70
2019-02-20T20:02:37.723Z,26.90
2019-02-20T20:05:18.284Z,26.65
2019-02-20T20:07:30.988Z,25.15
2019-02-20T20:09:41.074Z,26.90
2019-02-20T20:11:50.644Z,27.10
2019-02-20T20:14:12.825Z,29.20
2019-02-20T20:16:31.626Z,28.50
2019-02-20T20:19:01.809Z,26.00
2019-02-20T20:21:08.976Z,25.57
2019-02-20T20:23:35.901Z,26.80
2019-02-20T20:25:46.176Z,25.12
2019-02-20T20:28:07.980Z,25.95
2019-02-20T20:30:35.755Z,27.90
2019-02-20T20:33:04.945Z,29.52
2019-02-20T20:35:23.804Z,26.80
2019-02-20T20:37:36.459Z,30.48
2019-02-20T20:39:46.661Z,37.93
2019-02-20T20:42:05.914Z,33.08
2019-02-20T20:44:49.566Z,30.72
2019-02-20T20:46:59.275Z,30.35
2019-02-20T20:49:09.707Z,27.95
2019-02-20T20:51:29.127Z,26.00
2019-02-20T20:54:11.024Z,30.75
2019-02-20T20:56:27.326Z,27.90
2019-02-20T20:58:50.676Z,25.10
2019-02-20T21:01:03.060Z,24.25
2019-02-20T21:03:10.168Z,24.63
2019-02-20T21:05:35.160Z,21.33
2019-02-20T21:07:47.816Z,23.52
2019-02-20T21:10:00.318Z,22.65
2019-02-20T21:12:16.216Z,22.05
2019-02-20T21:14:32.156Z,24.60
2019-02-20T21:16:48.256Z,21.60
2019-02-20T21:19:00.852Z,18.67
2019-02-20T21:21:08.046Z,21.93
2019-02-20T21:23:33.241Z,18.57
2019-02-20T21:25:52.018Z,22.15
2019-02-20T21:28:27.849Z,21.20
2019-02-20T21:31:08.032Z,19.82
2019-02-20T21:33:17.950Z,22.80
2019-02-20T21:35:25.150Z,21.52
2019-02-20T21:37:55.071Z,23.22
2019-02-20T21:40:11.475Z,24.30
2019-02-20T21:42:21.392Z,22.37
2019-02-20T21:44:50.716Z,20.32
2019-02-20T21:47:15.905Z,20.08
2019-02-20T21:49:28.423Z,19.87
2019-02-20T21:51:51.866Z,21.82
2019-02-20T21:54:16.902Z,21.77
2019-02-20T21:56:29.567Z,22.62
2019-02-20T21:58:48.554Z,20.62
2019-02-20T22:01:23.922Z,22.98
2019-02-20T22:03:42.734Z,22.52
2019-02-20T22:05:52.990Z,25.75
2019-02-20T22:08:02.944Z,22.30
2019-02-20T22:10:15.754Z,21.75
2019-02-20T22:12:22.994Z,23.52
2019-02-20T22:14:48.355Z,23.90
2019-02-20T22:17:01.179Z,25.12
2019-02-20T22:19:23.925Z,23.05
2019-02-20T22:21:46.068Z,28.32
2019-02-20T22:23:56.094Z,26.45
2019-02-20T22:26:11.527Z,30.62
2019-02-20T22:28:37.891Z,26.48
2019-02-20T22:30:56.167Z,29.72
2019-02-20T22:33:14.980Z,28.50
2019-02-20T22:35:24.953Z,32.83
2019-02-20T22:38:05.038Z,29.45
2019-02-20T22:40:27.035Z,32.10
2019-02-20T22:42:39.937Z,40.78
2019-02-20T22:44:55.688Z,41.30
2019-02-20T22:47:05.890Z,33.80
2019-02-20T22:49:27.093Z,30.77
2019-02-20T22:52:03.262Z,32.33
2019-02-20T22:54:15.876Z,29.92
2019-02-20T22:56:46.158Z,31.55
2019-02-20T22:58:59.216Z,28.15
2019-02-20T23:01:24.725Z,28.02
2019-02-20T23:03:32.219Z,33.05
2019-02-20T23:05:53.759Z,31.95
2019-02-20T23:08:06.441Z,33.13
2019-02-20T23:49:39.491Z,28.62
2019-02-20T23:51:43.336Z,28.10
2019-02-20T23:53:47.511Z,27.82
2019-02-20T23:55:51.646Z,27.85
2019-02-20T23:57:58.507Z,26.40
